Portada
METAR-TAF:

METAR-TAF

Aeroports :

Petropavl, Kazakhstan

latitud: 54-46-28N, longitud: 069-11-06E, altitud: 139 m

Observació

L'informe es va fer fa 10 minuts, a les 06:00 UTC
Vent 16 kt del Sud-Oest
Temperatura -10°C
Humitat 85%
Pressió 1029 hPa
Visibilitat 10 km o més
sense núvols per sota de 1500 mi sense presència de cumulonimbus.

METAR: UACP 280600Z 23008MPS CAVOK M10/M12 Q1029 R23/3/0238 NOSIG RMK QFE759/1012

Hora: 12:10 (06:10 UTC)

Pronòstic

L'informe es va fer fa 1 hora i 9 minuts, a les 05:01 UTC
Pronòstic vàlid del 28 a les 06 UTC al 28 a les 15 UTC
Vent 14 kt del Oest/Sud-Oest
Visibilitat 10 km o més
Núvols disperses a una alçada de 1500 ft
Cel ennuvolat a una alçada de 3000 ft
Temporalment
l' 28 a les 07 UTC al 28 a les 12 UTC
Vent 19 kt del Oest/Sud-Oest amb ràfegues de 29 kt

TAF: UACP 280501Z 2806/2815 24007MPS 9999 SCT015 BKN030 TEMPO 2807/2812 24010G15MPS

Observacions i pronòstics meteorològics de més de 4000 aeroports (METAR i TAF).

Les estacions disponibles són els punts grocs i vermells al mapa.

Posi el ratolí al punt desitjat per veure el nom de l'estació.

Feu clic per veure les observacions i els pronòstics meteorològics.

Per canviar el mapa: feu clic els botons verds amb una creu de color negre per apropar; al botó verd amb un guió per allunyar la imatge; o en les fletxes verdes per a mapes adjacents.


METAR-TAF: